Terminal Aerodrome Forecast
Issued by NWS

Home | Current Version | Previous Version | Text Only | Print | Product List | Glossary On
Versions: 1 2 3 4 5 6 7 8 9 10 11 12
000
FTUS45 KABQ 201100
TAFTCC
TAF
KTCC 201126Z 2012/2112 22010KT P6SM SCT150
     FM201800 21014G23KT P6SM SCT070 BKN130
     FM202200 21016G25KT P6SM VCTS SCT070CB BKN130
     FM210200 19010KT P6SM FEW080 BKN150
     FM210800 22010KT P6SM SCT200=

USA.gov is the U.S. government's official web portal to all federal, state and local government web resources and services.